sensor_id;sensor_type;location;lat;lon;timestamp;P1;durP1;ratioP1;P2;durP2;ratioP2
11596;SDS011;5854;48.072;16.286;2023-03-20T00:01:16;17.40;;;14.20;;
11596;SDS011;5854;48.072;16.286;2023-03-20T00:03:46;20.65;;;14.63;;
11596;SDS011;5854;48.072;16.286;2023-03-20T00:06:14;17.98;;;14.13;;
11596;SDS011;5854;48.072;16.286;2023-03-20T00:08:42;17.70;;;13.38;;
11596;SDS011;5854;48.072;16.286;2023-03-20T00:11:14;17.92;;;14.73;;
11596;SDS011;5854;48.072;16.286;2023-03-20T00:13:56;24.55;;;15.18;;
11596;SDS011;5854;48.072;16.286;2023-03-20T00:16:26;22.40;;;14.43;;
11596;SDS011;5854;48.072;16.286;2023-03-20T00:18:57;17.58;;;13.75;;
11596;SDS011;5854;48.072;16.286;2023-03-20T00:21:24;21.48;;;14.18;;
11596;SDS011;5854;48.072;16.286;2023-03-20T00:23:52;16.27;;;14.35;;
11596;SDS011;5854;48.072;16.286;2023-03-20T00:26:19;19.52;;;13.27;;
11596;SDS011;5854;48.072;16.286;2023-03-20T00:28:52;16.42;;;14.00;;
11596;SDS011;5854;48.072;16.286;2023-03-20T00:31:23;26.05;;;15.43;;
11596;SDS011;5854;48.072;16.286;2023-03-20T00:33:51;19.85;;;13.55;;
11596;SDS011;5854;48.072;16.286;2023-03-20T00:36:21;19.40;;;15.13;;
11596;SDS011;5854;48.072;16.286;2023-03-20T00:38:48;15.70;;;13.05;;
11596;SDS011;5854;48.072;16.286;2023-03-20T00:41:21;16.08;;;13.50;;
11596;SDS011;5854;48.072;16.286;2023-03-20T00:43:52;16.45;;;13.88;;
11596;SDS011;5854;48.072;16.286;2023-03-20T00:46:25;16.67;;;13.55;;
11596;SDS011;5854;48.072;16.286;2023-03-20T00:48:52;19.08;;;14.32;;
11596;SDS011;5854;48.072;16.286;2023-03-20T00:51:20;20.25;;;14.52;;
11596;SDS011;5854;48.072;16.286;2023-03-20T00:53:48;19.85;;;15.23;;
11596;SDS011;5854;48.072;16.286;2023-03-20T00:58:59;15.77;;;14.05;;
11596;SDS011;5854;48.072;16.286;2023-03-20T01:01:29;22.25;;;15.20;;
11596;SDS011;5854;48.072;16.286;2023-03-20T01:03:57;24.52;;;15.00;;
11596;SDS011;5854;48.072;16.286;2023-03-20T01:06:24;20.33;;;15.05;;
11596;SDS011;5854;48.072;16.286;2023-03-20T01:08:52;20.77;;;14.90;;
11596;SDS011;5854;48.072;16.286;2023-03-20T01:11:22;17.98;;;13.93;;
11596;SDS011;5854;48.072;16.286;2023-03-20T01:13:50;16.30;;;14.52;;
11596;SDS011;5854;48.072;16.286;2023-03-20T01:16:18;21.02;;;15.45;;
11596;SDS011;5854;48.072;16.286;2023-03-20T01:18:49;24.95;;;16.38;;
11596;SDS011;5854;48.072;16.286;2023-03-20T01:21:17;20.15;;;15.52;;
11596;SDS011;5854;48.072;16.286;2023-03-20T01:23:45;19.95;;;15.40;;
11596;SDS011;5854;48.072;16.286;2023-03-20T01:26:22;22.00;;;16.50;;
11596;SDS011;5854;48.072;16.286;2023-03-20T01:28:57;23.52;;;17.95;;
11596;SDS011;5854;48.072;16.286;2023-03-20T01:31:24;30.58;;;18.15;;
11596;SDS011;5854;48.072;16.286;2023-03-20T01:33:52;27.05;;;17.98;;
11596;SDS011;5854;48.072;16.286;2023-03-20T01:36:20;26.00;;;17.30;;
11596;SDS011;5854;48.072;16.286;2023-03-20T01:38:50;24.15;;;18.08;;
11596;SDS011;5854;48.072;16.286;2023-03-20T01:41:20;21.70;;;16.77;;
11596;SDS011;5854;48.072;16.286;2023-03-20T01:43:50;26.00;;;18.25;;
11596;SDS011;5854;48.072;16.286;2023-03-20T01:46:19;27.55;;;18.27;;
11596;SDS011;5854;48.072;16.286;2023-03-20T01:48:59;28.35;;;18.40;;
11596;SDS011;5854;48.072;16.286;2023-03-20T01:51:34;27.33;;;19.30;;
11596;SDS011;5854;48.072;16.286;2023-03-20T01:54:02;29.20;;;18.27;;
11596;SDS011;5854;48.072;16.286;2023-03-20T01:56:36;23.10;;;19.10;;
11596;SDS011;5854;48.072;16.286;2023-03-20T01:59:08;25.70;;;18.58;;
11596;SDS011;5854;48.072;16.286;2023-03-20T02:01:40;24.55;;;18.38;;
11596;SDS011;5854;48.072;16.286;2023-03-20T02:04:09;24.85;;;18.85;;
11596;SDS011;5854;48.072;16.286;2023-03-20T02:06:38;23.13;;;18.48;;
11596;SDS011;5854;48.072;16.286;2023-03-20T02:09:05;22.80;;;17.88;;
11596;SDS011;5854;48.072;16.286;2023-03-20T02:11:33;25.63;;;17.20;;
11596;SDS011;5854;48.072;16.286;2023-03-20T02:14:03;24.83;;;18.92;;
11596;SDS011;5854;48.072;16.286;2023-03-20T02:16:31;20.60;;;17.27;;
11596;SDS011;5854;48.072;16.286;2023-03-20T02:18:58;25.27;;;18.70;;
11596;SDS011;5854;48.072;16.286;2023-03-20T02:21:40;21.88;;;19.30;;
11596;SDS011;5854;48.072;16.286;2023-03-20T02:28:01;20.40;;;17.00;;
11596;SDS011;5854;48.072;16.286;2023-03-20T02:31:05;20.33;;;16.50;;
11596;SDS011;5854;48.072;16.286;2023-03-20T02:37:27;23.55;;;16.98;;
11596;SDS011;5854;48.072;16.286;2023-03-20T02:40:29;23.58;;;16.92;;
11596;SDS011;5854;48.072;16.286;2023-03-20T02:43:06;24.20;;;18.20;;
11596;SDS011;5854;48.072;16.286;2023-03-20T02:45:43;20.83;;;16.55;;
11596;SDS011;5854;48.072;16.286;2023-03-20T02:48:22;22.80;;;18.38;;
11596;SDS011;5854;48.072;16.286;2023-03-20T02:51:06;23.15;;;18.30;;
11596;SDS011;5854;48.072;16.286;2023-03-20T02:53:41;29.70;;;17.67;;
11596;SDS011;5854;48.072;16.286;2023-03-20T02:56:18;22.42;;;17.58;;
11596;SDS011;5854;48.072;16.286;2023-03-20T02:58:52;18.92;;;16.92;;
11596;SDS011;5854;48.072;16.286;2023-03-20T03:01:29;19.98;;;17.23;;
11596;SDS011;5854;48.072;16.286;2023-03-20T03:04:03;18.35;;;16.33;;
11596;SDS011;5854;48.072;16.286;2023-03-20T03:06:34;21.00;;;16.02;;
11596;SDS011;5854;48.072;16.286;2023-03-20T03:09:07;19.15;;;16.83;;
11596;SDS011;5854;48.072;16.286;2023-03-20T03:11:38;17.98;;;16.08;;
11596;SDS011;5854;48.072;16.286;2023-03-20T03:14:09;20.48;;;17.58;;
11596;SDS011;5854;48.072;16.286;2023-03-20T03:16:44;25.90;;;17.73;;
11596;SDS011;5854;48.072;16.286;2023-03-20T03:19:15;23.05;;;17.83;;
11596;SDS011;5854;48.072;16.286;2023-03-20T03:21:47;23.55;;;17.98;;
11596;SDS011;5854;48.072;16.286;2023-03-20T03:24:20;19.23;;;16.65;;
11596;SDS011;5854;48.072;16.286;2023-03-20T03:26:54;24.38;;;16.38;;
11596;SDS011;5854;48.072;16.286;2023-03-20T03:29:23;23.98;;;15.63;;
11596;SDS011;5854;48.072;16.286;2023-03-20T03:31:54;19.77;;;16.05;;
11596;SDS011;5854;48.072;16.286;2023-03-20T03:34:21;17.95;;;15.13;;
11596;SDS011;5854;48.072;16.286;2023-03-20T03:36:50;19.27;;;15.52;;
11596;SDS011;5854;48.072;16.286;2023-03-20T03:39:28;20.02;;;15.45;;
11596;SDS011;5854;48.072;16.286;2023-03-20T03:42:04;22.65;;;16.02;;
11596;SDS011;5854;48.072;16.286;2023-03-20T03:44:40;20.08;;;15.05;;
11596;SDS011;5854;48.072;16.286;2023-03-20T03:47:13;18.13;;;15.52;;
11596;SDS011;5854;48.072;16.286;2023-03-20T03:49:47;21.67;;;16.10;;
11596;SDS011;5854;48.072;16.286;2023-03-20T03:52:19;18.13;;;15.65;;
11596;SDS011;5854;48.072;16.286;2023-03-20T03:54:51;17.95;;;16.10;;
11596;SDS011;5854;48.072;16.286;2023-03-20T03:57:24;19.17;;;15.07;;
11596;SDS011;5854;48.072;16.286;2023-03-20T03:59:54;23.88;;;16.48;;
11596;SDS011;5854;48.072;16.286;2023-03-20T04:02:23;23.50;;;16.63;;
11596;SDS011;5854;48.072;16.286;2023-03-20T04:04:51;21.73;;;17.30;;
11596;SDS011;5854;48.072;16.286;2023-03-20T04:07:20;19.92;;;15.60;;
11596;SDS011;5854;48.072;16.286;2023-03-20T04:09:52;23.23;;;17.40;;
11596;SDS011;5854;48.072;16.286;2023-03-20T04:15:05;23.75;;;17.38;;
11596;SDS011;5854;48.072;16.286;2023-03-20T04:17:33;22.63;;;16.95;;
11596;SDS011;5854;48.072;16.286;2023-03-20T04:20:00;20.70;;;16.02;;
11596;SDS011;5854;48.072;16.286;2023-03-20T04:22:29;21.88;;;16.75;;
11596;SDS011;5854;48.072;16.286;2023-03-20T04:25:00;20.80;;;16.90;;
11596;SDS011;5854;48.072;16.286;2023-03-20T04:27:27;21.25;;;16.30;;
11596;SDS011;5854;48.072;16.286;2023-03-20T04:29:54;23.10;;;16.75;;
11596;SDS011;5854;48.072;16.286;2023-03-20T04:32:22;24.25;;;15.98;;
11596;SDS011;5854;48.072;16.286;2023-03-20T04:34:49;18.17;;;15.70;;
11596;SDS011;5854;48.072;16.286;2023-03-20T04:37:18;18.10;;;15.90;;
11596;SDS011;5854;48.072;16.286;2023-03-20T04:39:45;21.50;;;17.50;;
11596;SDS011;5854;48.072;16.286;2023-03-20T04:42:14;21.13;;;17.33;;
11596;SDS011;5854;48.072;16.286;2023-03-20T04:44:41;20.65;;;17.15;;
11596;SDS011;5854;48.072;16.286;2023-03-20T04:47:08;22.90;;;17.30;;
11596;SDS011;5854;48.072;16.286;2023-03-20T04:49:35;22.10;;;16.77;;
11596;SDS011;5854;48.072;16.286;2023-03-20T04:52:02;23.23;;;17.10;;
11596;SDS011;5854;48.072;16.286;2023-03-20T04:54:29;25.42;;;16.23;;
11596;SDS011;5854;48.072;16.286;2023-03-20T04:56:56;26.10;;;15.88;;
11596;SDS011;5854;48.072;16.286;2023-03-20T04:59:25;24.10;;;16.50;;
11596;SDS011;5854;48.072;16.286;2023-03-20T05:01:52;22.27;;;14.48;;
11596;SDS011;5854;48.072;16.286;2023-03-20T05:04:19;21.50;;;14.38;;
11596;SDS011;5854;48.072;16.286;2023-03-20T05:06:46;21.40;;;14.77;;
11596;SDS011;5854;48.072;16.286;2023-03-20T05:09:13;23.60;;;15.45;;
11596;SDS011;5854;48.072;16.286;2023-03-20T05:11:41;18.92;;;13.40;;
11596;SDS011;5854;48.072;16.286;2023-03-20T05:14:08;17.52;;;14.57;;
11596;SDS011;5854;48.072;16.286;2023-03-20T05:16:37;23.83;;;16.17;;
11596;SDS011;5854;48.072;16.286;2023-03-20T05:19:04;20.98;;;14.63;;
11596;SDS011;5854;48.072;16.286;2023-03-20T05:21:32;18.95;;;15.18;;
11596;SDS011;5854;48.072;16.286;2023-03-20T05:23:59;19.42;;;14.60;;
11596;SDS011;5854;48.072;16.286;2023-03-20T05:26:26;20.85;;;14.70;;
11596;SDS011;5854;48.072;16.286;2023-03-20T05:28:53;24.20;;;15.20;;
11596;SDS011;5854;48.072;16.286;2023-03-20T05:31:20;19.48;;;15.73;;
11596;SDS011;5854;48.072;16.286;2023-03-20T05:33:49;21.58;;;15.07;;
11596;SDS011;5854;48.072;16.286;2023-03-20T05:36:16;18.45;;;15.52;;
11596;SDS011;5854;48.072;16.286;2023-03-20T05:38:43;18.35;;;14.07;;
11596;SDS011;5854;48.072;16.286;2023-03-20T05:41:10;12.45;;;10.90;;
11596;SDS011;5854;48.072;16.286;2023-03-20T05:43:37;16.38;;;11.77;;
11596;SDS011;5854;48.072;16.286;2023-03-20T05:46:04;17.17;;;12.38;;
11596;SDS011;5854;48.072;16.286;2023-03-20T05:48:32;17.40;;;12.77;;
11596;SDS011;5854;48.072;16.286;2023-03-20T05:51:00;23.05;;;12.80;;
11596;SDS011;5854;48.072;16.286;2023-03-20T05:53:27;15.77;;;12.80;;
11596;SDS011;5854;48.072;16.286;2023-03-20T05:55:54;16.48;;;13.40;;
11596;SDS011;5854;48.072;16.286;2023-03-20T05:58:21;18.88;;;14.02;;
11596;SDS011;5854;48.072;16.286;2023-03-20T06:00:48;19.15;;;13.02;;
11596;SDS011;5854;48.072;16.286;2023-03-20T06:03:15;20.08;;;14.50;;
11596;SDS011;5854;48.072;16.286;2023-03-20T06:05:42;21.02;;;13.88;;
11596;SDS011;5854;48.072;16.286;2023-03-20T06:08:11;20.27;;;14.55;;
11596;SDS011;5854;48.072;16.286;2023-03-20T06:10:39;17.67;;;14.73;;
11596;SDS011;5854;48.072;16.286;2023-03-20T06:13:07;17.33;;;13.85;;
11596;SDS011;5854;48.072;16.286;2023-03-20T06:15:34;13.65;;;11.52;;
11596;SDS011;5854;48.072;16.286;2023-03-20T06:18:01;18.98;;;14.55;;
11596;SDS011;5854;48.072;16.286;2023-03-20T06:20:28;24.88;;;15.18;;
11596;SDS011;5854;48.072;16.286;2023-03-20T06:22:55;15.63;;;13.35;;
11596;SDS011;5854;48.072;16.286;2023-03-20T06:25:24;20.45;;;15.20;;
11596;SDS011;5854;48.072;16.286;2023-03-20T06:27:51;19.05;;;13.38;;
11596;SDS011;5854;48.072;16.286;2023-03-20T06:30:18;18.60;;;14.10;;
11596;SDS011;5854;48.072;16.286;2023-03-20T06:32:45;13.95;;;12.07;;
11596;SDS011;5854;48.072;16.286;2023-03-20T06:35:12;18.83;;;12.77;;
11596;SDS011;5854;48.072;16.286;2023-03-20T06:37:40;16.50;;;13.63;;
11596;SDS011;5854;48.072;16.286;2023-03-20T06:40:07;20.60;;;12.95;;
11596;SDS011;5854;48.072;16.286;2023-03-20T06:42:37;16.58;;;12.63;;
11596;SDS011;5854;48.072;16.286;2023-03-20T06:45:04;16.85;;;12.73;;
11596;SDS011;5854;48.072;16.286;2023-03-20T06:47:33;15.82;;;11.57;;
11596;SDS011;5854;48.072;16.286;2023-03-20T06:50:00;16.75;;;11.13;;
11596;SDS011;5854;48.072;16.286;2023-03-20T06:52:27;16.27;;;11.75;;
11596;SDS011;5854;48.072;16.286;2023-03-20T06:54:54;15.43;;;10.18;;
11596;SDS011;5854;48.072;16.286;2023-03-20T06:57:22;12.77;;;10.88;;
11596;SDS011;5854;48.072;16.286;2023-03-20T06:59:50;15.00;;;11.73;;
11596;SDS011;5854;48.072;16.286;2023-03-20T07:02:17;18.60;;;10.90;;
11596;SDS011;5854;48.072;16.286;2023-03-20T07:04:45;13.95;;;10.85;;
11596;SDS011;5854;48.072;16.286;2023-03-20T07:07:12;15.15;;;8.55;;
11596;SDS011;5854;48.072;16.286;2023-03-20T07:09:39;13.43;;;9.93;;
11596;SDS011;5854;48.072;16.286;2023-03-20T07:12:08;15.10;;;10.07;;
11596;SDS011;5854;48.072;16.286;2023-03-20T07:14:38;11.88;;;10.52;;
11596;SDS011;5854;48.072;16.286;2023-03-20T07:17:08;13.05;;;9.45;;
11596;SDS011;5854;48.072;16.286;2023-03-20T07:19:35;14.80;;;10.43;;
11596;SDS011;5854;48.072;16.286;2023-03-20T07:22:03;14.60;;;10.93;;
11596;SDS011;5854;48.072;16.286;2023-03-20T07:24:33;12.05;;;10.85;;
11596;SDS011;5854;48.072;16.286;2023-03-20T07:27:00;13.77;;;10.35;;
11596;SDS011;5854;48.072;16.286;2023-03-20T07:29:27;19.25;;;11.82;;
11596;SDS011;5854;48.072;16.286;2023-03-20T07:31:54;16.40;;;12.45;;
11596;SDS011;5854;48.072;16.286;2023-03-20T07:34:22;13.50;;;9.50;;
11596;SDS011;5854;48.072;16.286;2023-03-20T07:36:49;15.43;;;10.35;;
11596;SDS011;5854;48.072;16.286;2023-03-20T07:39:17;14.35;;;10.05;;
11596;SDS011;5854;48.072;16.286;2023-03-20T07:41:44;14.88;;;10.23;;
11596;SDS011;5854;48.072;16.286;2023-03-20T07:44:11;14.00;;;10.35;;
11596;SDS011;5854;48.072;16.286;2023-03-20T07:46:38;23.08;;;10.63;;
11596;SDS011;5854;48.072;16.286;2023-03-20T07:49:06;14.18;;;9.70;;
11596;SDS011;5854;48.072;16.286;2023-03-20T07:51:34;10.80;;;9.65;;
11596;SDS011;5854;48.072;16.286;2023-03-20T07:54:02;10.10;;;9.10;;
11596;SDS011;5854;48.072;16.286;2023-03-20T07:56:29;12.23;;;9.00;;
11596;SDS011;5854;48.072;16.286;2023-03-20T07:58:57;13.20;;;8.82;;
11596;SDS011;5854;48.072;16.286;2023-03-20T08:01:24;11.77;;;8.50;;
11596;SDS011;5854;48.072;16.286;2023-03-20T08:03:51;10.32;;;8.52;;
11596;SDS011;5854;48.072;16.286;2023-03-20T08:06:18;10.50;;;7.90;;
11596;SDS011;5854;48.072;16.286;2023-03-20T08:08:47;11.13;;;7.90;;
11596;SDS011;5854;48.072;16.286;2023-03-20T08:11:16;7.15;;;6.25;;
11596;SDS011;5854;48.072;16.286;2023-03-20T08:13:43;8.93;;;7.20;;
11596;SDS011;5854;48.072;16.286;2023-03-20T08:16:11;9.68;;;7.50;;
11596;SDS011;5854;48.072;16.286;2023-03-20T08:18:38;12.75;;;7.93;;
11596;SDS011;5854;48.072;16.286;2023-03-20T08:21:06;11.75;;;8.02;;
11596;SDS011;5854;48.072;16.286;2023-03-20T08:23:34;7.10;;;6.50;;
11596;SDS011;5854;48.072;16.286;2023-03-20T08:26:03;9.98;;;6.72;;
11596;SDS011;5854;48.072;16.286;2023-03-20T08:28:30;8.10;;;6.15;;
11596;SDS011;5854;48.072;16.286;2023-03-20T08:30:57;7.18;;;6.50;;
11596;SDS011;5854;48.072;16.286;2023-03-20T08:33:24;9.68;;;6.90;;
11596;SDS011;5854;48.072;16.286;2023-03-20T08:35:54;8.43;;;6.82;;
11596;SDS011;5854;48.072;16.286;2023-03-20T08:38:23;12.57;;;6.15;;
11596;SDS011;5854;48.072;16.286;2023-03-20T08:40:50;8.27;;;5.93;;
11596;SDS011;5854;48.072;16.286;2023-03-20T08:43:20;7.35;;;4.80;;
11596;SDS011;5854;48.072;16.286;2023-03-20T08:45:47;5.55;;;5.05;;
11596;SDS011;5854;48.072;16.286;2023-03-20T08:48:14;3.97;;;3.63;;
11596;SDS011;5854;48.072;16.286;2023-03-20T08:50:41;5.00;;;4.55;;
11596;SDS011;5854;48.072;16.286;2023-03-20T08:53:09;5.00;;;3.72;;
11596;SDS011;5854;48.072;16.286;2023-03-20T08:55:36;4.25;;;3.70;;
11596;SDS011;5854;48.072;16.286;2023-03-20T08:58:03;4.70;;;3.50;;
11596;SDS011;5854;48.072;16.286;2023-03-20T09:00:31;4.75;;;3.58;;
11596;SDS011;5854;48.072;16.286;2023-03-20T09:02:58;2.00;;;1.85;;
11596;SDS011;5854;48.072;16.286;2023-03-20T09:05:25;6.82;;;3.50;;
11596;SDS011;5854;48.072;16.286;2023-03-20T09:07:52;3.60;;;3.33;;
11596;SDS011;5854;48.072;16.286;2023-03-20T09:10:19;4.18;;;3.80;;
11596;SDS011;5854;48.072;16.286;2023-03-20T09:12:46;2.80;;;2.53;;
11596;SDS011;5854;48.072;16.286;2023-03-20T09:15:13;7.10;;;3.08;;
11596;SDS011;5854;48.072;16.286;2023-03-20T09:17:42;4.78;;;3.60;;
11596;SDS011;5854;48.072;16.286;2023-03-20T09:20:09;3.08;;;2.88;;
11596;SDS011;5854;48.072;16.286;2023-03-20T09:22:37;7.55;;;4.38;;
11596;SDS011;5854;48.072;16.286;2023-03-20T09:25:05;6.32;;;3.40;;
11596;SDS011;5854;48.072;16.286;2023-03-20T09:27:33;6.88;;;2.92;;
11596;SDS011;5854;48.072;16.286;2023-03-20T09:30:00;11.30;;;2.85;;
11596;SDS011;5854;48.072;16.286;2023-03-20T09:32:27;3.17;;;2.88;;
11596;SDS011;5854;48.072;16.286;2023-03-20T09:34:56;3.97;;;2.65;;
11596;SDS011;5854;48.072;16.286;2023-03-20T09:37:23;3.55;;;3.00;;
11596;SDS011;5854;48.072;16.286;2023-03-20T09:39:50;5.72;;;3.42;;
11596;SDS011;5854;48.072;16.286;2023-03-20T09:42:21;6.40;;;3.72;;
11596;SDS011;5854;48.072;16.286;2023-03-20T09:45:00;2.85;;;2.65;;
11596;SDS011;5854;48.072;16.286;2023-03-20T09:47:37;6.60;;;4.25;;
11596;SDS011;5854;48.072;16.286;2023-03-20T09:50:17;4.63;;;3.40;;
11596;SDS011;5854;48.072;16.286;2023-03-20T09:52:58;5.43;;;3.17;;
11596;SDS011;5854;48.072;16.286;2023-03-20T09:55:32;3.40;;;3.13;;
11596;SDS011;5854;48.072;16.286;2023-03-20T09:58:03;4.15;;;2.28;;
11596;SDS011;5854;48.072;16.286;2023-03-20T10:00:37;4.97;;;2.78;;
11596;SDS011;5854;48.072;16.286;2023-03-20T10:03:13;2.72;;;2.13;;
11596;SDS011;5854;48.072;16.286;2023-03-20T10:05:47;5.32;;;2.45;;
11596;SDS011;5854;48.072;16.286;2023-03-20T10:08:23;2.47;;;1.52;;
11596;SDS011;5854;48.072;16.286;2023-03-20T10:10:56;6.30;;;3.13;;
11596;SDS011;5854;48.072;16.286;2023-03-20T10:13:47;3.95;;;2.63;;
11596;SDS011;5854;48.072;16.286;2023-03-20T10:16:28;7.88;;;1.92;;
11596;SDS011;5854;48.072;16.286;2023-03-20T10:19:15;4.10;;;2.55;;
11596;SDS011;5854;48.072;16.286;2023-03-20T10:21:50;5.53;;;2.30;;
11596;SDS011;5854;48.072;16.286;2023-03-20T10:24:25;2.45;;;2.25;;
11596;SDS011;5854;48.072;16.286;2023-03-20T10:26:57;2.95;;;2.20;;
11596;SDS011;5854;48.072;16.286;2023-03-20T10:29:33;1.63;;;1.50;;
11596;SDS011;5854;48.072;16.286;2023-03-20T10:32:11;3.05;;;2.30;;
11596;SDS011;5854;48.072;16.286;2023-03-20T10:34:51;5.00;;;1.75;;
11596;SDS011;5854;48.072;16.286;2023-03-20T10:37:30;5.43;;;1.98;;
11596;SDS011;5854;48.072;16.286;2023-03-20T10:40:20;3.30;;;2.22;;
11596;SDS011;5854;48.072;16.286;2023-03-20T10:42:52;3.10;;;1.70;;
11596;SDS011;5854;48.072;16.286;2023-03-20T10:45:26;4.33;;;2.73;;
11596;SDS011;5854;48.072;16.286;2023-03-20T10:48:06;3.05;;;2.00;;
11596;SDS011;5854;48.072;16.286;2023-03-20T10:50:43;5.95;;;3.78;;
11596;SDS011;5854;48.072;16.286;2023-03-20T10:53:20;3.53;;;2.67;;
11596;SDS011;5854;48.072;16.286;2023-03-20T10:55:55;2.83;;;2.45;;
11596;SDS011;5854;48.072;16.286;2023-03-20T10:58:27;7.13;;;2.60;;
11596;SDS011;5854;48.072;16.286;2023-03-20T11:00:57;4.10;;;2.97;;
11596;SDS011;5854;48.072;16.286;2023-03-20T11:03:25;4.05;;;3.15;;
11596;SDS011;5854;48.072;16.286;2023-03-20T11:06:04;4.50;;;2.05;;
11596;SDS011;5854;48.072;16.286;2023-03-20T11:09:09;8.52;;;2.45;;
11596;SDS011;5854;48.072;16.286;2023-03-20T11:11:44;2.55;;;2.15;;
11596;SDS011;5854;48.072;16.286;2023-03-20T11:14:15;9.45;;;2.67;;
11596;SDS011;5854;48.072;16.286;2023-03-20T11:16:46;3.08;;;2.00;;
11596;SDS011;5854;48.072;16.286;2023-03-20T11:19:15;5.10;;;2.73;;
11596;SDS011;5854;48.072;16.286;2023-03-20T11:21:46;2.08;;;1.95;;
11596;SDS011;5854;48.072;16.286;2023-03-20T11:24:23;3.47;;;2.40;;
11596;SDS011;5854;48.072;16.286;2023-03-20T11:26:54;2.92;;;2.70;;
11596;SDS011;5854;48.072;16.286;2023-03-20T11:29:32;8.20;;;2.50;;
11596;SDS011;5854;48.072;16.286;2023-03-20T11:32:04;3.83;;;2.60;;
11596;SDS011;5854;48.072;16.286;2023-03-20T11:34:43;3.33;;;2.60;;
11596;SDS011;5854;48.072;16.286;2023-03-20T11:40:06;5.68;;;2.90;;
11596;SDS011;5854;48.072;16.286;2023-03-20T11:42:50;5.30;;;3.15;;
11596;SDS011;5854;48.072;16.286;2023-03-20T11:45:18;4.68;;;2.63;;
11596;SDS011;5854;48.072;16.286;2023-03-20T11:47:47;2.70;;;2.50;;
11596;SDS011;5854;48.072;16.286;2023-03-20T11:52:55;2.70;;;2.20;;
11596;SDS011;5854;48.072;16.286;2023-03-20T11:55:25;2.95;;;2.60;;
11596;SDS011;5854;48.072;16.286;2023-03-20T11:57:55;3.45;;;3.03;;
11596;SDS011;5854;48.072;16.286;2023-03-20T12:00:24;3.83;;;2.63;;
11596;SDS011;5854;48.072;16.286;2023-03-20T12:02:55;3.28;;;2.90;;
11596;SDS011;5854;48.072;16.286;2023-03-20T12:05:27;4.38;;;3.08;;
11596;SDS011;5854;48.072;16.286;2023-03-20T12:07:58;4.22;;;3.05;;
11596;SDS011;5854;48.072;16.286;2023-03-20T12:10:31;4.53;;;2.63;;
11596;SDS011;5854;48.072;16.286;2023-03-20T12:13:03;3.63;;;3.28;;
11596;SDS011;5854;48.072;16.286;2023-03-20T12:15:39;3.50;;;2.15;;
11596;SDS011;5854;48.072;16.286;2023-03-20T12:20:42;10.77;;;2.90;;
11596;SDS011;5854;48.072;16.286;2023-03-20T12:23:19;4.82;;;2.75;;
11596;SDS011;5854;48.072;16.286;2023-03-20T12:25:54;3.55;;;2.72;;
11596;SDS011;5854;48.072;16.286;2023-03-20T12:28:28;3.85;;;2.90;;
11596;SDS011;5854;48.072;16.286;2023-03-20T12:31:05;4.18;;;2.95;;
11596;SDS011;5854;48.072;16.286;2023-03-20T12:33:46;2.42;;;2.17;;
11596;SDS011;5854;48.072;16.286;2023-03-20T12:36:21;2.20;;;2.00;;
11596;SDS011;5854;48.072;16.286;2023-03-20T12:38:57;3.42;;;2.00;;
11596;SDS011;5854;48.072;16.286;2023-03-20T12:41:28;3.60;;;2.03;;
11596;SDS011;5854;48.072;16.286;2023-03-20T12:44:08;2.92;;;1.90;;
11596;SDS011;5854;48.072;16.286;2023-03-20T12:46:46;2.72;;;1.95;;
11596;SDS011;5854;48.072;16.286;2023-03-20T12:49:28;5.82;;;1.77;;
11596;SDS011;5854;48.072;16.286;2023-03-20T12:52:09;1.85;;;1.65;;
11596;SDS011;5854;48.072;16.286;2023-03-20T12:54:49;5.30;;;1.30;;
11596;SDS011;5854;48.072;16.286;2023-03-20T12:57:35;1.60;;;1.30;;
11596;SDS011;5854;48.072;16.286;2023-03-20T13:00:17;1.50;;;1.02;;
11596;SDS011;5854;48.072;16.286;2023-03-20T13:02:55;2.03;;;1.08;;
11596;SDS011;5854;48.072;16.286;2023-03-20T13:05:34;1.67;;;1.20;;
11596;SDS011;5854;48.072;16.286;2023-03-20T13:08:13;4.72;;;1.35;;
11596;SDS011;5854;48.072;16.286;2023-03-20T13:10:59;7.32;;;1.42;;
11596;SDS011;5854;48.072;16.286;2023-03-20T13:13:41;2.28;;;1.20;;
11596;SDS011;5854;48.072;16.286;2023-03-20T13:16:17;2.42;;;1.40;;
11596;SDS011;5854;48.072;16.286;2023-03-20T13:18:55;2.03;;;1.13;;
11596;SDS011;5854;48.072;16.286;2023-03-20T13:21:30;2.88;;;1.20;;
11596;SDS011;5854;48.072;16.286;2023-03-20T13:24:03;2.03;;;1.30;;
11596;SDS011;5854;48.072;16.286;2023-03-20T13:26:48;2.22;;;1.00;;
11596;SDS011;5854;48.072;16.286;2023-03-20T13:29:26;3.35;;;1.40;;
11596;SDS011;5854;48.072;16.286;2023-03-20T13:32:02;4.65;;;1.25;;
11596;SDS011;5854;48.072;16.286;2023-03-20T13:34:48;6.13;;;1.50;;
11596;SDS011;5854;48.072;16.286;2023-03-20T13:37:29;2.05;;;1.23;;
11596;SDS011;5854;48.072;16.286;2023-03-20T13:40:05;5.75;;;1.40;;
11596;SDS011;5854;48.072;16.286;2023-03-20T13:42:43;2.70;;;1.50;;
11596;SDS011;5854;48.072;16.286;2023-03-20T13:45:32;2.10;;;1.63;;
11596;SDS011;5854;48.072;16.286;2023-03-20T13:48:18;1.92;;;1.30;;
11596;SDS011;5854;48.072;16.286;2023-03-20T13:50:53;1.75;;;1.27;;
11596;SDS011;5854;48.072;16.286;2023-03-20T13:53:33;2.28;;;1.55;;
11596;SDS011;5854;48.072;16.286;2023-03-20T13:56:11;3.45;;;1.05;;
11596;SDS011;5854;48.072;16.286;2023-03-20T13:58:58;5.68;;;1.75;;
11596;SDS011;5854;48.072;16.286;2023-03-20T14:02:03;1.27;;;1.17;;
11596;SDS011;5854;48.072;16.286;2023-03-20T14:04:45;2.10;;;1.67;;
11596;SDS011;5854;48.072;16.286;2023-03-20T14:07:26;2.05;;;1.45;;
11596;SDS011;5854;48.072;16.286;2023-03-20T14:09:56;3.85;;;1.75;;
11596;SDS011;5854;48.072;16.286;2023-03-20T14:13:00;3.10;;;1.52;;
11596;SDS011;5854;48.072;16.286;2023-03-20T14:15:31;2.92;;;1.42;;
11596;SDS011;5854;48.072;16.286;2023-03-20T14:18:06;3.15;;;1.52;;
11596;SDS011;5854;48.072;16.286;2023-03-20T14:20:41;6.20;;;1.45;;
11596;SDS011;5854;48.072;16.286;2023-03-20T14:23:15;1.98;;;1.20;;
11596;SDS011;5854;48.072;16.286;2023-03-20T14:25:44;1.75;;;1.40;;
11596;SDS011;5854;48.072;16.286;2023-03-20T14:28:22;3.05;;;1.63;;
11596;SDS011;5854;48.072;16.286;2023-03-20T14:33:52;2.28;;;1.98;;
11596;SDS011;5854;48.072;16.286;2023-03-20T14:36:41;1.58;;;1.48;;
11596;SDS011;5854;48.072;16.286;2023-03-20T14:39:21;2.45;;;1.40;;
11596;SDS011;5854;48.072;16.286;2023-03-20T14:42:18;3.58;;;1.90;;
11596;SDS011;5854;48.072;16.286;2023-03-20T14:45:01;2.88;;;1.92;;
11596;SDS011;5854;48.072;16.286;2023-03-20T14:47:54;2.15;;;1.95;;
11596;SDS011;5854;48.072;16.286;2023-03-20T14:50:28;3.70;;;1.67;;
11596;SDS011;5854;48.072;16.286;2023-03-20T14:53:02;3.00;;;1.80;;
11596;SDS011;5854;48.072;16.286;2023-03-20T14:55:46;2.17;;;1.92;;
11596;SDS011;5854;48.072;16.286;2023-03-20T15:01:33;2.10;;;1.88;;
11596;SDS011;5854;48.072;16.286;2023-03-20T15:04:22;1.65;;;1.48;;
11596;SDS011;5854;48.072;16.286;2023-03-20T15:06:56;5.88;;;1.70;;
11596;SDS011;5854;48.072;16.286;2023-03-20T15:09:26;3.08;;;2.10;;
11596;SDS011;5854;48.072;16.286;2023-03-20T15:11:57;2.22;;;2.10;;
11596;SDS011;5854;48.072;16.286;2023-03-20T15:14:29;2.67;;;2.47;;
11596;SDS011;5854;48.072;16.286;2023-03-20T15:17:02;2.20;;;2.00;;
11596;SDS011;5854;48.072;16.286;2023-03-20T15:19:31;2.50;;;1.73;;
11596;SDS011;5854;48.072;16.286;2023-03-20T15:22:09;33.03;;;3.90;;
11596;SDS011;5854;48.072;16.286;2023-03-20T15:24:41;16.92;;;2.25;;
11596;SDS011;5854;48.072;16.286;2023-03-20T15:27:18;39.80;;;2.97;;
11596;SDS011;5854;48.072;16.286;2023-03-20T15:29:46;9.35;;;1.90;;